createdAt,value
2019-02-17T00:02:18.838Z,77.47
2019-02-17T00:04:48.544Z,60.90
2019-02-17T00:07:18.230Z,55.83
2019-02-17T00:09:47.886Z,48.87
2019-02-17T00:12:17.613Z,46.80
2019-02-17T00:14:47.357Z,44.80
2019-02-17T00:17:17.086Z,42.53
2019-02-17T00:19:46.755Z,45.43
2019-02-17T00:22:16.853Z,43.23
2019-02-17T00:24:46.664Z,45.03
2019-02-17T00:27:16.321Z,47.83
2019-02-17T00:29:46.044Z,42.70
2019-02-17T00:32:15.689Z,45.77
2019-02-17T00:34:45.377Z,38.70
2019-02-17T00:37:15.047Z,44.73
2019-02-17T00:39:44.695Z,41.53
2019-02-17T00:42:15.105Z,37.67
2019-02-17T00:44:44.778Z,39.73
2019-02-17T00:47:14.436Z,44.20
2019-02-17T00:49:44.116Z,41.10
2019-02-17T00:52:13.862Z,41.90
2019-02-17T00:54:43.576Z,42.77
2019-02-17T00:57:13.253Z,41.23
2019-02-17T00:59:42.980Z,39.13
2019-02-17T01:02:12.624Z,45.43
2019-02-17T01:04:42.264Z,46.00
2019-02-17T01:07:11.927Z,48.53
2019-02-17T01:09:41.573Z,44.13
2019-02-17T01:12:11.274Z,47.07
2019-02-17T01:14:40.965Z,43.77
2019-02-17T01:17:10.600Z,42.90
2019-02-17T01:19:40.282Z,44.03
2019-02-17T01:22:09.927Z,42.57
2019-02-17T01:24:39.602Z,37.73
2019-02-17T01:27:09.301Z,44.03
2019-02-17T01:29:38.982Z,43.03
2019-02-17T01:32:09.710Z,40.70
2019-02-17T01:34:39.431Z,43.00
2019-02-17T01:37:09.108Z,42.50
2019-02-17T01:39:38.772Z,42.33
2019-02-17T01:42:08.445Z,38.50
2019-02-17T01:44:38.153Z,42.50
2019-02-17T01:47:07.842Z,40.37
2019-02-17T01:49:37.773Z,47.10
2019-02-17T01:52:07.451Z,42.07
2019-02-17T01:54:37.193Z,40.47
2019-02-17T01:57:06.889Z,36.37
2019-02-17T01:59:36.532Z,42.73
2019-02-17T02:02:06.255Z,43.77
2019-02-17T02:04:35.933Z,43.90
2019-02-17T02:07:05.719Z,42.97
2019-02-17T02:09:35.464Z,42.73
2019-02-17T02:12:05.118Z,45.13
2019-02-17T02:14:37.829Z,46.70
2019-02-17T02:17:07.478Z,44.37
2019-02-17T02:19:37.140Z,41.60
2019-02-17T02:22:06.810Z,39.93
2019-02-17T02:24:36.539Z,42.73
2019-02-17T02:27:06.193Z,42.80
2019-02-17T02:29:41.030Z,41.03
2019-02-17T02:32:07.351Z,43.40
2019-02-17T02:34:37.039Z,40.27
2019-02-17T02:37:06.722Z,45.10
2019-02-17T02:39:36.531Z,42.27
2019-02-17T02:42:06.201Z,46.73
2019-02-17T02:44:36.011Z,46.43
2019-02-17T02:47:05.642Z,41.87
2019-02-17T02:49:37.063Z,44.63
2019-02-17T02:52:06.694Z,49.17
2019-02-17T02:54:36.414Z,48.20
2019-02-17T02:57:06.054Z,47.70
2019-02-17T02:59:35.751Z,48.97
2019-02-17T03:02:05.516Z,47.73
2019-02-17T03:04:35.243Z,43.80
2019-02-17T03:07:10.835Z,44.67
2019-02-17T03:09:40.525Z,40.13
2019-02-17T03:12:10.171Z,44.13
2019-02-17T03:14:39.919Z,47.73
2019-02-17T03:17:09.667Z,47.60
2019-02-17T03:19:40.355Z,42.73
2019-02-17T03:22:09.989Z,42.50
2019-02-17T03:24:39.678Z,42.27
2019-02-17T03:27:09.315Z,41.37
2019-02-17T03:29:39.725Z,41.57
2019-02-17T03:32:09.381Z,41.90
2019-02-17T03:34:39.026Z,45.77
2019-02-17T03:37:08.723Z,43.83
2019-02-17T03:39:38.387Z,46.57
2019-02-17T03:42:08.041Z,38.63
2019-02-17T03:44:37.716Z,43.60
2019-02-17T03:47:07.372Z,45.50
2019-02-17T03:49:37.064Z,43.03
2019-02-17T03:52:07.233Z,46.13
2019-02-17T03:54:36.967Z,44.33
2019-02-17T03:57:06.629Z,44.83
2019-02-17T03:59:36.283Z,48.63
2019-02-17T04:02:05.979Z,45.70
2019-02-17T04:04:36.062Z,47.40
2019-02-17T04:07:05.698Z,45.97
2019-02-17T04:09:35.387Z,43.97
2019-02-17T04:12:05.078Z,49.53
2019-02-17T04:14:34.743Z,42.63
2019-02-17T04:17:04.402Z,43.17
2019-02-17T04:19:34.134Z,43.23
2019-02-17T04:22:03.795Z,48.47
2019-02-17T04:24:33.450Z,45.67
2019-02-17T04:27:03.124Z,47.77
2019-02-17T04:29:33.823Z,49.67
2019-02-17T04:32:03.482Z,44.40
2019-02-17T04:34:33.129Z,45.77
2019-02-17T04:37:02.791Z,46.70
2019-02-17T04:39:32.510Z,47.80
2019-02-17T04:42:02.166Z,49.20
2019-02-17T04:44:31.807Z,47.63
2019-02-17T04:47:01.494Z,48.33
2019-02-17T04:49:31.187Z,47.77
2019-02-17T04:52:00.872Z,48.93
2019-02-17T04:54:30.595Z,50.87
2019-02-17T04:57:00.234Z,54.57
2019-02-17T04:59:29.881Z,48.63
2019-02-17T05:01:59.592Z,52.13
2019-02-17T05:04:29.245Z,47.57
2019-02-17T05:06:59.271Z,49.80
2019-02-17T05:09:28.962Z,49.13
2019-02-17T05:11:58.623Z,52.17
2019-02-17T05:14:28.335Z,50.50
2019-02-17T05:16:58.897Z,51.37
2019-02-17T05:19:28.591Z,49.73
2019-02-17T05:21:58.255Z,52.97
2019-02-17T05:24:27.908Z,55.60
2019-02-17T05:26:57.590Z,51.83
2019-02-17T05:29:27.239Z,54.40
2019-02-17T05:31:56.894Z,50.80
2019-02-17T05:34:26.569Z,48.53
2019-02-17T05:36:56.246Z,53.97
2019-02-17T05:39:25.945Z,47.00
2019-02-17T05:41:55.599Z,47.67
2019-02-17T05:44:25.262Z,46.50
2019-02-17T05:46:54.979Z,47.63
2019-02-17T05:49:24.634Z,49.20
2019-02-17T05:51:54.291Z,52.20
2019-02-17T05:54:24.039Z,46.27
2019-02-17T05:56:53.727Z,48.00
2019-02-17T05:59:23.365Z,46.87
2019-02-17T06:01:53.149Z,53.07
2019-02-17T06:04:22.794Z,48.50
2019-02-17T06:06:52.465Z,49.83
2019-02-17T06:09:22.139Z,51.20
2019-02-17T06:11:51.807Z,58.93
2019-02-17T06:14:21.772Z,56.97
2019-02-17T06:16:51.425Z,56.17
2019-02-17T06:19:21.076Z,54.90
2019-02-17T06:21:51.296Z,49.40
2019-02-17T06:24:20.987Z,51.07
2019-02-17T06:26:50.658Z,49.37
2019-02-17T06:29:21.069Z,48.30
2019-02-17T06:31:50.749Z,47.47
2019-02-17T06:34:20.440Z,50.67
2019-02-17T06:36:50.188Z,48.37
2019-02-17T06:39:19.910Z,47.50
2019-02-17T06:41:49.603Z,49.60
2019-02-17T06:44:19.318Z,48.30
2019-02-17T06:46:53.470Z,46.20
2019-02-17T06:49:23.202Z,48.87
2019-02-17T06:51:52.902Z,46.60
2019-02-17T06:54:22.549Z,46.57
2019-02-17T06:57:01.372Z,47.83
2019-02-17T06:59:31.083Z,50.87
2019-02-17T07:02:00.846Z,50.27
2019-02-17T07:04:42.183Z,47.27
2019-02-17T07:07:11.873Z,49.47
2019-02-17T07:09:41.494Z,48.97
2019-02-17T07:12:11.247Z,47.00
2019-02-17T07:14:40.914Z,48.70
2019-02-17T07:17:10.636Z,43.10
2019-02-17T07:19:40.332Z,45.63
2019-02-17T07:22:09.986Z,47.47
2019-02-17T07:24:39.735Z,47.83
2019-02-17T07:27:09.411Z,44.30
2019-02-17T07:29:39.095Z,49.87
2019-02-17T07:32:08.830Z,44.10
2019-02-17T07:34:38.494Z,46.03
2019-02-17T07:37:11.174Z,46.00
2019-02-17T07:39:40.993Z,51.03
2019-02-17T07:42:10.650Z,48.97
2019-02-17T07:44:40.533Z,45.37
2019-02-17T07:47:10.661Z,44.40
2019-02-17T07:49:40.301Z,44.87
2019-02-17T07:52:09.958Z,44.30
2019-02-17T07:54:39.673Z,50.20
2019-02-17T07:57:09.313Z,46.77
2019-02-17T07:59:39.003Z,48.13
2019-02-17T08:02:08.730Z,47.73
2019-02-17T08:04:38.565Z,43.87
2019-02-17T08:07:08.213Z,46.50
2019-02-17T08:09:37.924Z,46.43
2019-02-17T08:12:07.645Z,49.10
2019-02-17T08:14:37.295Z,45.20
2019-02-17T08:17:06.974Z,46.10
2019-02-17T08:19:36.703Z,51.40
2019-02-17T08:22:06.473Z,43.10
2019-02-17T08:24:36.157Z,45.77
2019-02-17T08:27:05.992Z,46.50
2019-02-17T08:29:38.022Z,55.77
2019-02-17T08:32:07.790Z,59.50
2019-02-17T08:34:37.487Z,47.57
2019-02-17T08:37:10.141Z,47.47
2019-02-17T08:39:39.830Z,43.50
2019-02-17T08:42:09.609Z,47.60
2019-02-17T08:44:39.295Z,56.00
2019-02-17T08:47:09.010Z,51.07
2019-02-17T08:49:38.678Z,52.47
2019-02-17T08:52:11.402Z,51.57
2019-02-17T08:54:41.107Z,55.57
2019-02-17T08:57:10.757Z,59.70
2019-02-17T08:59:40.453Z,52.73
2019-02-17T09:02:10.144Z,54.53
2019-02-17T09:04:39.831Z,54.03
2019-02-17T09:07:12.704Z,57.70
2019-02-17T09:09:42.422Z,54.20
2019-02-17T09:12:12.126Z,54.27
2019-02-17T09:14:41.779Z,45.47
2019-02-17T09:17:11.557Z,55.93
2019-02-17T09:19:41.265Z,60.77
2019-02-17T09:22:11.217Z,54.43
2019-02-17T09:24:40.937Z,49.13
2019-02-17T09:27:10.708Z,51.80
2019-02-17T09:29:40.452Z,50.23
2019-02-17T09:32:16.418Z,47.40
2019-02-17T09:34:41.533Z,50.97
2019-02-17T09:37:11.337Z,45.77
2019-02-17T09:39:41.535Z,39.93
2019-02-17T09:42:12.590Z,35.13
2019-02-17T09:44:42.312Z,30.40
2019-02-17T09:47:12.011Z,26.20
2019-02-17T09:49:41.765Z,29.03
2019-02-17T09:52:11.571Z,23.87
2019-02-17T09:54:41.241Z,21.83
2019-02-17T09:57:13.427Z,28.13
2019-02-17T09:59:43.170Z,26.67
2019-02-17T10:02:12.961Z,25.80
2019-02-17T10:04:42.635Z,28.63
2019-02-17T10:07:12.387Z,27.30
2019-02-17T10:09:42.041Z,21.93
2019-02-17T10:12:12.999Z,19.47
2019-02-17T10:14:42.719Z,16.33
2019-02-17T10:17:12.378Z,17.80
2019-02-17T10:19:43.031Z,19.73
2019-02-17T10:22:12.726Z,19.83
2019-02-17T10:24:42.416Z,19.10
2019-02-17T10:27:13.978Z,16.40
2019-02-17T10:29:43.698Z,17.87
2019-02-17T10:32:16.451Z,20.43
2019-02-17T10:34:46.127Z,29.37
2019-02-17T10:37:16.004Z,21.43
2019-02-17T10:39:45.698Z,21.23
2019-02-17T10:42:15.377Z,25.07
2019-02-17T10:44:45.077Z,22.73
2019-02-17T10:47:14.788Z,18.90
2019-02-17T10:49:44.496Z,18.50
2019-02-17T10:52:14.225Z,21.00
2019-02-17T10:54:43.845Z,16.57
2019-02-17T10:57:13.599Z,25.07
2019-02-17T10:59:43.280Z,22.87
2019-02-17T11:02:12.954Z,18.87
2019-02-17T11:04:42.689Z,18.70
2019-02-17T11:07:12.371Z,20.80
2019-02-17T11:09:42.058Z,25.07
2019-02-17T11:12:11.807Z,19.20
2019-02-17T11:14:41.458Z,19.60
2019-02-17T11:17:11.167Z,21.27
2019-02-17T11:19:40.864Z,30.80
2019-02-17T11:22:10.546Z,22.37
2019-02-17T11:24:42.069Z,29.30
2019-02-17T11:27:11.768Z,27.07
2019-02-17T11:29:41.438Z,20.87
2019-02-17T11:32:11.197Z,20.57
2019-02-17T11:34:40.893Z,23.80
2019-02-17T11:37:10.740Z,25.23
2019-02-17T11:39:40.462Z,17.53
2019-02-17T11:42:10.726Z,16.67
2019-02-17T11:44:40.424Z,22.80
2019-02-17T11:47:10.125Z,18.93
2019-02-17T11:49:39.843Z,19.73
2019-02-17T11:52:10.013Z,20.40
2019-02-17T11:54:39.685Z,19.33
2019-02-17T11:57:09.389Z,18.13
2019-02-17T11:59:39.130Z,20.80
2019-02-17T12:02:08.787Z,18.37
2019-02-17T12:04:38.445Z,20.20
2019-02-17T12:07:08.969Z,17.90
2019-02-17T12:09:38.647Z,19.00
2019-02-17T12:12:08.351Z,16.67
2019-02-17T12:14:39.665Z,21.30
2019-02-17T12:17:09.383Z,20.13
2019-02-17T12:19:39.117Z,18.00
2019-02-17T12:22:20.600Z,25.87
2019-02-17T12:24:59.807Z,21.40
2019-02-17T12:27:37.961Z,21.43
2019-02-17T12:30:12.172Z,23.43
2019-02-17T12:32:41.839Z,20.27
2019-02-17T12:35:11.545Z,19.33
2019-02-17T12:37:41.281Z,23.10
2019-02-17T12:40:12.705Z,24.60
2019-02-17T12:42:42.418Z,23.97
2019-02-17T12:45:17.955Z,21.93
2019-02-17T12:47:45.739Z,23.20
2019-02-17T12:50:15.390Z,22.17
2019-02-17T12:52:47.776Z,23.83
2019-02-17T12:55:16.409Z,20.93
2019-02-17T12:57:46.122Z,27.73
2019-02-17T13:00:18.116Z,22.70
2019-02-17T13:02:47.843Z,22.27
2019-02-17T13:05:17.569Z,21.17
2019-02-17T13:07:47.292Z,25.17
2019-02-17T13:10:16.991Z,22.23
2019-02-17T13:12:46.653Z,23.23
2019-02-17T13:15:16.395Z,22.30
2019-02-17T13:17:46.085Z,21.60
2019-02-17T13:20:16.569Z,23.80
2019-02-17T13:22:46.255Z,25.30
2019-02-17T13:25:15.993Z,21.60
2019-02-17T13:27:45.702Z,21.00
2019-02-17T13:30:20.181Z,22.77
2019-02-17T13:32:49.901Z,18.07
2019-02-17T13:35:19.575Z,18.13
2019-02-17T13:37:49.279Z,16.70
2019-02-17T13:40:20.966Z,19.90
2019-02-17T13:42:50.694Z,18.60
2019-02-17T13:45:20.462Z,18.80
2019-02-17T13:47:50.152Z,14.53
2019-02-17T13:50:19.918Z,16.13
2019-02-17T13:52:49.672Z,18.67
2019-02-17T13:55:19.335Z,18.17
2019-02-17T13:57:49.046Z,18.80
2019-02-17T14:00:18.857Z,17.80
2019-02-17T14:02:48.577Z,21.33
2019-02-17T14:05:18.258Z,23.10
2019-02-17T14:07:47.955Z,21.03
2019-02-17T14:10:17.687Z,14.63
2019-02-17T14:12:48.479Z,12.13
2019-02-17T14:15:18.302Z,12.27
2019-02-17T14:17:48.020Z,12.87
2019-02-17T14:20:17.875Z,16.37
2019-02-17T14:22:47.607Z,18.50
2019-02-17T14:25:17.294Z,12.17
2019-02-17T14:27:47.059Z,14.23
2019-02-17T14:30:17.075Z,13.70
2019-02-17T14:32:46.797Z,17.90
2019-02-17T14:35:16.542Z,18.87
2019-02-17T14:37:46.245Z,17.37
2019-02-17T14:40:15.951Z,17.80
2019-02-17T14:42:45.673Z,14.27
2019-02-17T14:45:15.483Z,13.63
2019-02-17T14:47:45.251Z,20.70
2019-02-17T14:50:16.242Z,20.97
2019-02-17T14:52:46.082Z,21.03
2019-02-17T14:55:15.794Z,15.43
2019-02-17T14:57:45.449Z,19.33
2019-02-17T15:00:15.286Z,24.37
2019-02-17T15:02:46.534Z,20.87
2019-02-17T15:05:16.182Z,17.27
2019-02-17T15:07:47.019Z,21.13
2019-02-17T15:10:16.706Z,20.13
2019-02-17T15:12:46.416Z,21.27
2019-02-17T15:15:16.099Z,23.20
2019-02-17T15:17:45.836Z,17.37
2019-02-17T15:20:15.580Z,21.20
2019-02-17T15:22:45.309Z,21.63
2019-02-17T15:25:15.011Z,25.87
2019-02-17T15:27:44.727Z,20.17
2019-02-17T15:30:17.622Z,18.00
2019-02-17T15:32:46.996Z,21.43
2019-02-17T15:35:16.707Z,24.93
2019-02-17T15:37:46.436Z,24.17
2019-02-17T15:40:16.192Z,22.37
2019-02-17T15:42:45.964Z,50.17
2019-02-17T15:45:15.777Z,19.50
2019-02-17T15:47:45.498Z,20.13
2019-02-17T15:50:17.184Z,18.53
2019-02-17T15:52:47.115Z,24.63
2019-02-17T15:55:16.919Z,23.53
2019-02-17T15:57:48.923Z,22.37
2019-02-17T16:00:18.130Z,29.33
2019-02-17T16:02:48.023Z,25.30
2019-02-17T16:05:18.223Z,24.60
2019-02-17T16:07:48.030Z,23.47
2019-02-17T16:10:19.218Z,26.63
2019-02-17T16:12:50.192Z,30.77
2019-02-17T16:15:20.994Z,34.23
2019-02-17T16:17:52.620Z,29.97
2019-02-17T16:20:22.325Z,33.13
2019-02-17T16:22:52.043Z,32.43
2019-02-17T16:25:21.766Z,28.90
2019-02-17T16:27:51.467Z,30.30
2019-02-17T16:30:21.171Z,27.90
2019-02-17T16:32:50.875Z,27.67
2019-02-17T16:35:20.631Z,26.80
2019-02-17T16:37:50.371Z,26.57
2019-02-17T16:40:20.052Z,30.53
2019-02-17T16:42:49.758Z,25.83
2019-02-17T16:45:19.456Z,30.87
2019-02-17T16:47:49.138Z,34.23
2019-02-17T16:50:19.937Z,37.57
2019-02-17T16:52:49.765Z,43.97
2019-02-17T16:55:19.435Z,48.80
2019-02-17T16:57:49.225Z,39.00
2019-02-17T17:00:25.254Z,37.90
2019-02-17T17:02:54.944Z,39.23
2019-02-17T17:05:24.740Z,48.70
2019-02-17T17:07:54.416Z,39.37
2019-02-17T17:10:24.315Z,45.50
2019-02-17T17:12:54.023Z,50.70
2019-02-17T17:15:23.686Z,42.13
2019-02-17T17:17:53.337Z,35.07
2019-02-17T17:20:23.114Z,36.83
2019-02-17T17:22:52.782Z,39.00
2019-02-17T17:25:22.470Z,42.87
2019-02-17T17:27:52.166Z,33.50
2019-02-17T17:30:21.848Z,34.70
2019-02-17T17:32:51.499Z,34.77
2019-02-17T17:35:21.191Z,39.00
2019-02-17T17:37:50.845Z,34.63
2019-02-17T17:40:20.541Z,37.33
2019-02-17T17:42:52.817Z,38.70
2019-02-17T17:45:22.981Z,42.30
2019-02-17T17:47:52.660Z,40.07
2019-02-17T17:50:22.405Z,35.43
2019-02-17T17:52:52.140Z,39.93
2019-02-17T17:55:21.819Z,36.33
2019-02-17T17:57:51.647Z,37.10
2019-02-17T18:00:22.150Z,42.10
2019-02-17T18:02:51.995Z,52.43
2019-02-17T18:05:21.705Z,61.23
2019-02-17T18:07:51.443Z,54.43
2019-02-17T18:10:21.154Z,55.17
2019-02-17T18:12:54.081Z,60.40
2019-02-17T18:15:24.395Z,58.10
2019-02-17T18:17:55.053Z,53.50
2019-02-17T18:20:25.200Z,50.23
2019-02-17T18:22:54.974Z,50.53
2019-02-17T18:25:24.732Z,53.43
2019-02-17T18:27:55.301Z,57.23
2019-02-17T18:30:25.109Z,53.30
2019-02-17T18:32:54.804Z,53.07
2019-02-17T18:35:24.477Z,60.40
2019-02-17T18:37:54.283Z,72.83
2019-02-17T18:40:25.436Z,91.53
2019-02-17T18:42:55.195Z,94.50
2019-02-17T18:45:24.930Z,92.20
2019-02-17T18:47:54.635Z,82.33
2019-02-17T18:50:24.374Z,75.97
2019-02-17T18:52:54.157Z,72.23
2019-02-17T18:55:24.048Z,73.40
2019-02-17T18:57:53.781Z,77.60
2019-02-17T19:00:23.481Z,67.10
2019-02-17T19:02:53.420Z,64.87
2019-02-17T19:05:31.522Z,62.93
2019-02-17T19:07:54.459Z,62.10
2019-02-17T19:10:24.144Z,57.93
2019-02-17T19:12:56.174Z,68.30
2019-02-17T19:15:25.895Z,80.77
2019-02-17T19:17:55.694Z,76.43
2019-02-17T19:20:27.394Z,69.40
2019-02-17T19:22:59.647Z,66.73
2019-02-17T19:25:29.391Z,67.90
2019-02-17T19:27:59.061Z,58.57
2019-02-17T19:30:28.927Z,53.17
2019-02-17T19:32:58.664Z,54.67
2019-02-17T19:35:28.333Z,80.57
2019-02-17T19:37:58.105Z,55.83
2019-02-17T19:40:27.835Z,55.60
2019-02-17T19:42:57.629Z,53.73
2019-02-17T19:45:27.305Z,83.37
2019-02-17T19:47:57.107Z,71.97
2019-02-17T19:50:27.011Z,72.20
2019-02-17T19:52:56.736Z,64.47
2019-02-17T19:55:26.522Z,75.90
2019-02-17T19:57:56.250Z,64.37
2019-02-17T20:00:25.915Z,69.77
2019-02-17T20:03:20.582Z,70.37
2019-02-17T20:05:54.308Z,68.33
2019-02-17T20:08:24.015Z,67.47
2019-02-17T20:10:53.786Z,68.93
2019-02-17T20:13:23.505Z,67.10
2019-02-17T20:15:53.165Z,67.63
2019-02-17T20:18:22.959Z,55.37
2019-02-17T20:20:52.696Z,64.33
2019-02-17T20:23:22.423Z,66.57
2019-02-17T20:25:52.481Z,67.57
2019-02-17T20:28:35.663Z,64.87
2019-02-17T20:30:53.473Z,64.60
2019-02-17T20:33:23.183Z,65.03
2019-02-17T20:36:02.395Z,55.83
2019-02-17T20:38:25.025Z,60.77
2019-02-17T20:40:54.690Z,58.33
2019-02-17T20:43:24.414Z,63.47
2019-02-17T20:45:54.360Z,56.53
2019-02-17T20:48:25.548Z,58.33
2019-02-17T20:50:55.287Z,68.03
2019-02-17T20:53:27.787Z,62.60
2019-02-17T20:55:57.473Z,63.03
2019-02-17T20:58:27.184Z,62.17
2019-02-17T21:00:56.864Z,74.30
2019-02-17T21:03:26.535Z,68.23
2019-02-17T21:05:56.241Z,64.93
2019-02-17T21:08:25.912Z,64.60
2019-02-17T21:10:55.599Z,76.50
2019-02-17T21:13:25.326Z,67.33
2019-02-17T21:15:55.565Z,73.83
2019-02-17T21:18:25.278Z,82.47
2019-02-17T21:20:55.013Z,82.20
2019-02-17T21:23:24.734Z,80.97
2019-02-17T21:25:54.476Z,81.33
2019-02-17T21:28:24.158Z,74.17
2019-02-17T21:30:53.870Z,73.90
2019-02-17T21:33:23.606Z,78.03
2019-02-17T21:35:53.271Z,68.37
2019-02-17T21:38:23.468Z,70.53
2019-02-17T21:40:53.185Z,75.93
2019-02-17T21:43:25.237Z,66.57
2019-02-17T21:45:55.046Z,67.93
2019-02-17T21:48:24.756Z,70.40
2019-02-17T21:50:54.457Z,70.93
2019-02-17T21:53:25.142Z,71.80
2019-02-17T21:55:54.951Z,69.60
2019-02-17T21:58:25.010Z,76.30
2019-02-17T22:00:55.052Z,108.27
2019-02-17T22:03:24.837Z,94.97
2019-02-17T22:05:54.559Z,124.20
2019-02-17T22:08:25.291Z,121.93
2019-02-17T22:10:55.068Z,123.63
2019-02-17T22:13:24.758Z,124.50
2019-02-17T22:15:54.692Z,120.07
2019-02-17T22:18:24.406Z,113.37
2019-02-17T22:20:54.152Z,103.57
2019-02-17T22:23:23.948Z,115.53
2019-02-17T22:25:53.661Z,106.07
2019-02-17T22:28:23.596Z,119.50
2019-02-17T22:30:53.323Z,112.27
2019-02-17T22:33:23.014Z,114.57
2019-02-17T22:35:52.730Z,111.60
2019-02-17T22:38:22.437Z,114.03
2019-02-17T22:40:52.134Z,125.13
2019-02-17T22:43:21.845Z,142.27
2019-02-17T22:45:51.559Z,140.50
2019-02-17T22:48:21.339Z,138.43
2019-02-17T22:50:51.058Z,138.67
2019-02-17T22:53:20.773Z,125.30
2019-02-17T22:55:50.490Z,121.50
2019-02-17T22:58:20.182Z,116.93
2019-02-17T23:00:59.621Z,108.80
2019-02-17T23:03:30.344Z,112.73
2019-02-17T23:06:00.475Z,104.73
2019-02-17T23:08:30.186Z,98.60
2019-02-17T23:10:59.888Z,102.43
2019-02-17T23:13:29.587Z,95.47
2019-02-17T23:15:59.268Z,102.33
2019-02-17T23:18:29.131Z,99.60
2019-02-17T23:20:59.347Z,97.20
2019-02-17T23:23:29.110Z,94.17
2019-02-17T23:25:58.827Z,98.27
2019-02-17T23:28:28.535Z,110.07
2019-02-17T23:30:58.291Z,103.70
2019-02-17T23:33:27.980Z,97.93
2019-02-17T23:35:57.635Z,98.80
2019-02-17T23:38:27.383Z,93.77
2019-02-17T23:40:57.057Z,97.00
2019-02-17T23:43:27.095Z,95.90
2019-02-17T23:45:56.783Z,92.07
2019-02-17T23:48:26.484Z,86.87
2019-02-17T23:50:56.186Z,94.93
2019-02-17T23:53:25.870Z,91.67
2019-02-17T23:55:56.031Z,85.80
2019-02-17T23:58:27.807Z,89.50
